Hav Tind — OZ2071 — position and weather

sailwx.info

Track history (hours):
 
Tides and Currents Weather Stations Pressure Air Temp Water Temp Dewpoint Dewpoint Depression Visibility Wind Speed Wind Dir Waves Ship Positions

Hav Tind

Last reported at 2014-Nov-23 19:33 UTC. Time now 2014-Nov-23 19:59 UTC.
Position N 62°14' W 006°48'.

Length 60 m; draft 4 m.

Type: Cargo ship. MMSI: 231565000.

Date/timePositionNaut miles runAvg speedWind from/ knotsBaromVisibWave heightAir tempDewpointWater temp
2014-Nov-23 19:33N 62°14' W 006°48'0 0.0
2014-Nov-23 18:33N 62°14' W 006°48'0 0.0
2014-Nov-23 17:30N 62°14' W 006°48'0 0.0
2014-Nov-23 16:33N 62°14' W 006°48'0 0.0
2014-Nov-23 15:33N 62°14' W 006°48'0 0.0
2014-Nov-23 14:33N 62°14' W 006°48'0 0.0
2014-Nov-23 13:33N 62°14' W 006°48'0 0.0
2014-Nov-23 12:33N 62°14' W 006°48'0 0.0
2014-Nov-23 11:33N 62°14' W 006°48'0 0.0
2014-Nov-23 10:33N 62°14' W 006°48'0 0.0
2014-Nov-23 09:33N 62°14' W 006°48'0 0.0
2014-Nov-23 08:33N 62°14' W 006°48'0 0.0
2014-Nov-23 07:33N 62°14' W 006°48'0 0.0
2014-Nov-23 06:33N 62°14' W 006°48'0 0.0
2014-Nov-23 05:33N 62°14' W 006°48'0 0.0
2014-Nov-23 04:33N 62°14' W 006°48'0 0.0
2014-Nov-23 03:33N 62°14' W 006°48'0 0.0
2014-Nov-23 02:33N 62°14' W 006°48'0 0.0
2014-Nov-23 01:33N 62°14' W 006°48'0 0.0
2014-Nov-23 00:33N 62°14' W 006°48'0 0.0
2014-Nov-22 23:30N 62°14' W 006°48'0 0.0
2014-Nov-22 22:33N 62°14' W 006°48'0 0.0
2014-Nov-22 21:27N 62°14' W 006°48'0 0.0
2014-Nov-22 20:33N 62°14' W 006°48'0 0.0
2014-Nov-22 19:33N 62°14' W 006°48'0 0.0
2014-Nov-22 18:33N 62°14' W 006°48'0 0.0
2014-Nov-22 17:30N 62°14' W 006°48'0 0.0
2014-Nov-22 16:33N 62°14' W 006°48'0 0.0
2014-Nov-22 15:33N 62°14' W 006°48'0 0.0
2014-Nov-22 14:33N 62°14' W 006°48'0 0.0
2014-Nov-22 13:33N 62°14' W 006°48'0 0.0
2014-Nov-22 12:30N 62°14' W 006°48'0 0.0
2014-Nov-22 11:33N 62°14' W 006°48'0 0.0
2014-Nov-22 10:33N 62°14' W 006°48'0 0.0
2014-Nov-22 09:33N 62°14' W 006°48'0 0.0
2014-Nov-22 08:33N 62°14' W 006°48'0 0.0
2014-Nov-22 07:30N 62°14' W 006°48'0 0.0
2014-Nov-22 06:33N 62°14' W 006°48'0 0.0
2014-Nov-22 05:33N 62°14' W 006°48'0 0.0
2014-Nov-22 04:33N 62°14' W 006°48'0 0.0
2014-Nov-22 03:33N 62°14' W 006°48'0 0.0
2014-Nov-22 02:33N 62°14' W 006°48'0 0.0
2014-Nov-22 01:33N 62°14' W 006°48'0 0.0
2014-Nov-22 00:30N 62°14' W 006°48'0 0.0
2014-Nov-21 23:33N 62°14' W 006°48'0 0.0
2014-Nov-21 22:33N 62°14' W 006°48'0 0.0
2014-Nov-21 21:33N 62°14' W 006°48'0 0.0
2014-Nov-21 20:33N 62°14' W 006°48'0 0.0
2014-Nov-21 19:33N 62°14' W 006°48'0 0.0
2014-Nov-21 18:33N 62°14' W 006°48'0 0.0
2014-Nov-21 17:33N 62°14' W 006°48'0 0.0
2014-Nov-21 16:33N 62°14' W 006°48'0 0.0
2014-Nov-21 15:30N 62°14' W 006°48'0 0.0
2014-Nov-21 14:33N 62°14' W 006°48'2 2.2
2014-Nov-21 13:33N 62°14' W 006°44'8 8.1
2014-Nov-21 12:33N 62°06' W 006°36'8 8.1
2014-Nov-21 11:33N 61°59' W 006°45'0 0.3
2014-Nov-21 10:32N 61°59' W 006°45'7 7.3
2014-Nov-21 09:33N 62°06' W 006°38'9 8.6
2014-Nov-21 08:33N 62°14' W 006°45'2 1.6
2014-Nov-21 07:32N 62°14' W 006°48'0 0.0
2014-Nov-21 06:32N 62°14' W 006°48'0 0.0
2014-Nov-21 05:32N 62°14' W 006°48'0 0.0
2014-Nov-21 04:32N 62°14' W 006°48'0 0.0
2014-Nov-21 03:32N 62°14' W 006°48'0 0.0
2014-Nov-21 02:32N 62°14' W 006°48'0 0.0
2014-Nov-21 01:32N 62°14' W 006°48'0 0.0
2014-Nov-21 00:29N 62°14' W 006°48'0 0.0
2014-Nov-20 23:32N 62°14' W 006°48'0 0.0
2014-Nov-20 22:32N 62°14' W 006°48'0 0.0
2014-Nov-20 21:32N 62°14' W 006°48'0 0.0
2014-Nov-20 20:32N 62°14' W 006°48'0 0.0
2014-Nov-20 19:32N 62°14' W 006°48'0 0.0
2014-Nov-20 18:32N 62°14' W 006°48'0 0.0
2014-Nov-20 17:29N 62°14' W 006°48'4 4.3
2014-Nov-20 16:31N 62°13' W 006°40'2 1.6
2014-Nov-20 15:05N 62°12' W 006°44'1 1.6
2014-Nov-20 14:34N 62°11' W 006°44'1 0.7
2014-Nov-20 13:31N 62°10' W 006°43'0 0.0
2014-Nov-20 12:31N 62°10' W 006°43'0 0.0
2014-Nov-20 11:28N 62°10' W 006°43'0 0.0
2014-Nov-20 10:31N 62°10' W 006°43'4 4.3
2014-Nov-20 09:33N 62°14' W 006°47'0 0.5
2014-Nov-20 08:33N 62°14' W 006°48'0 0.0
2014-Nov-20 07:33N 62°14' W 006°48'0 0.0
2014-Nov-20 06:33N 62°14' W 006°48'0 0.0
2014-Nov-20 05:33N 62°14' W 006°48'0 0.0
2014-Nov-20 04:33N 62°14' W 006°48'0 0.0
2014-Nov-20 03:33N 62°14' W 006°48'0 0.0
2014-Nov-20 02:30N 62°14' W 006°48'0 0.0
2014-Nov-20 01:33N 62°14' W 006°48'0 0.0
2014-Nov-20 00:33N 62°14' W 006°48'0 0.0
2014-Nov-19 23:33N 62°14' W 006°48'0 0.0
2014-Nov-19 22:33N 62°14' W 006°48'0 0.0
2014-Nov-19 21:33N 62°14' W 006°48'0 0.0
2014-Nov-19 20:33N 62°14' W 006°48'0 0.0
2014-Nov-19 19:33N 62°14' W 006°48'0 0.0
2014-Nov-19 18:33N 62°14' W 006°48'7 7.0
2014-Nov-19 17:33N 62°11' W 006°35'4 0.5
2014-Nov-19 09:28N 62°11' W 006°27'8 8.8
2014-Nov-19 08:33N 62°13' W 006°43'3 2.6
2014-Nov-19 07:33N 62°14' W 006°48'0 0.0
2014-Nov-19 06:30N 62°14' W 006°48'0 0.0
2014-Nov-19 05:33N 62°14' W 006°48'0 0.0
2014-Nov-19 04:33N 62°14' W 006°48'0 0.0
2014-Nov-19 03:33N 62°14' W 006°48'0 0.0
2014-Nov-19 02:33N 62°14' W 006°48'0 0.0
2014-Nov-19 01:33N 62°14' W 006°48'0 0.0
2014-Nov-19 00:33N 62°14' W 006°48'0 0.0
2014-Nov-18 23:30N 62°14' W 006°48'0 0.0
2014-Nov-18 22:33N 62°14' W 006°48'0 0.0
2014-Nov-18 21:33N 62°14' W 006°48'0 0.0
2014-Nov-18 20:33N 62°14' W 006°48'0 0.0
2014-Nov-18 19:33N 62°14' W 006°48'0 0.0
2014-Nov-18 18:33N 62°14' W 006°48'0 0.0
2014-Nov-18 17:33N 62°14' W 006°48'0 0.0
2014-Nov-18 16:33N 62°14' W 006°48'0 0.0
2014-Nov-18 15:33N 62°14' W 006°48'0 0.0
2014-Nov-18 14:33N 62°14' W 006°48'0 0.0
2014-Nov-18 13:33N 62°14' W 006°48'0 0.3
2014-Nov-18 12:33N 62°14' W 006°48'3 1.0
2014-Nov-18 09:09N 62°17' W 006°49'3 5.3
2014-Nov-18 08:33N 62°14' W 006°48'0 0.1
2014-Nov-18 07:31N 62°14' W 006°48'0 0.0
2014-Nov-18 06:31N 62°14' W 006°48'0 0.0
2014-Nov-18 05:25N 62°14' W 006°48'0 0.0
2014-Nov-18 04:31N 62°14' W 006°48'0 0.0
2014-Nov-18 03:31N 62°14' W 006°48'0 0.0
2014-Nov-18 02:31N 62°14' W 006°48'0 0.0
2014-Nov-18 01:34N 62°14' W 006°48'0 0.0
2014-Nov-18 00:31N 62°14' W 006°48'0 0.0
2014-Nov-17 23:31N 62°14' W 006°48'0 0.0
2014-Nov-17 22:25N 62°14' W 006°48'0 0.0
2014-Nov-17 21:28N 62°14' W 006°48'0 0.0
2014-Nov-17 20:25N 62°14' W 006°48'0 0.0
2014-Nov-17 19:31N 62°14' W 006°48'0 0.0
2014-Nov-17 18:31N 62°14' W 006°48'0 0.0
2014-Nov-17 17:34N 62°14' W 006°48'0 0.0
2014-Nov-17 16:31N 62°14' W 006°48'0 0.0
2014-Nov-17 15:31N 62°14' W 006°48'0 0.0
2014-Nov-17 14:31N 62°14' W 006°48'0 0.0
2014-Nov-17 13:31N 62°14' W 006°48'0 0.0
2014-Nov-17 12:31N 62°14' W 006°48'0 0.0
2014-Nov-17 11:31N 62°14' W 006°48'0 0.0
2014-Nov-17 10:31N 62°14' W 006°48'0 0.0
2014-Nov-17 09:34N 62°14' W 006°48'0 0.0
2014-Nov-17 08:31N 62°14' W 006°48'0 0.0
2014-Nov-17 07:31N 62°14' W 006°48'0 0.0
2014-Nov-17 06:28N 62°14' W 006°48'0 0.0
2014-Nov-17 05:31N 62°14' W 006°48'0 0.0
2014-Nov-17 04:31N 62°14' W 006°48'0 0.0
2014-Nov-17 03:31N 62°14' W 006°48'0 0.0
2014-Nov-17 02:34N 62°14' W 006°48'0 0.0
2014-Nov-17 01:31N 62°14' W 006°48'0 0.0
2014-Nov-17 00:31N 62°14' W 006°48'0 0.0
2014-Nov-16 23:31N 62°14' W 006°48'0 0.0
2014-Nov-16 22:31N 62°14' W 006°48'0 0.0
2014-Nov-16 21:28N 62°14' W 006°48'0 0.0
2014-Nov-16 20:31N 62°14' W 006°48'0 0.0
2014-Nov-16 19:34N 62°14' W 006°48'0 0.0
2014-Nov-16 18:34N 62°14' W 006°48'0 0.0
2014-Nov-16 17:31N 62°14' W 006°48'0 0.0
2014-Nov-16 16:31N 62°14' W 006°48'0 0.0
2014-Nov-16 15:31N 62°14' W 006°48'0 0.0
2014-Nov-16 14:31N 62°14' W 006°48'0 0.0
2014-Nov-16 13:31N 62°14' W 006°48'0 0.0
2014-Nov-16 12:31N 62°14' W 006°48'0 0.0
2014-Nov-16 11:34N 62°14' W 006°48'0 0.0
2014-Nov-16 10:31N 62°14' W 006°48'0 0.0
2014-Nov-16 09:31N 62°14' W 006°48'0 0.0
2014-Nov-16 08:31N 62°14' W 006°48'0 0.0
2014-Nov-16 07:28N 62°14' W 006°48'0 0.0
2014-Nov-16 06:31N 62°14' W 006°48'0 0.0
2014-Nov-16 05:31N 62°14' W 006°48'0 0.0
2014-Nov-16 04:31N 62°14' W 006°48'0 0.0
2014-Nov-16 03:31N 62°14' W 006°48'0 0.0
2014-Nov-16 02:31N 62°14' W 006°48'0 0.0
2014-Nov-16 01:31N 62°14' W 006°48'0 0.0
2014-Nov-16 00:31N 62°14' W 006°48'0 0.0
2014-Nov-15 23:31N 62°14' W 006°48'0 0.0
2014-Nov-15 22:31N 62°14' W 006°48'0 0.0
2014-Nov-15 21:31N 62°14' W 006°48'0 0.0
2014-Nov-15 20:31N 62°14' W 006°48'0 0.0
2014-Nov-15 19:34N 62°14' W 006°48'0 0.0
2014-Nov-15 18:31N 62°14' W 006°48'0 0.0
2014-Nov-15 17:31N 62°14' W 006°48'0 0.0
2014-Nov-15 16:31N 62°14' W 006°48'0 0.0
2014-Nov-15 15:31N 62°14' W 006°48'0 0.0
2014-Nov-15 14:31N 62°14' W 006°48'0 0.0
2014-Nov-15 13:31N 62°14' W 006°48'0 0.0
2014-Nov-15 12:34N 62°14' W 006°48'0 0.0
2014-Nov-15 11:34N 62°14' W 006°48'0 0.0
2014-Nov-15 10:31N 62°14' W 006°48'0 0.0
2014-Nov-15 09:31N 62°14' W 006°48'0 0.0
2014-Nov-15 08:31N 62°14' W 006°48'0 0.0
2014-Nov-15 07:34N 62°14' W 006°48'0 0.0
2014-Nov-15 06:31N 62°14' W 006°48'0 0.0
2014-Nov-15 05:30N 62°14' W 006°48'0 0.0
2014-Nov-15 04:31N 62°14' W 006°48'0 0.0
2014-Nov-15 03:31N 62°14' W 006°48'0 0.0
2014-Nov-15 02:31N 62°14' W 006°48'0 0.0
2014-Nov-15 01:31N 62°14' W 006°48'0 0.0
2014-Nov-15 00:28N 62°14' W 006°48'0 0.0
2014-Nov-14 23:31N 62°14' W 006°48'0 0.0
2014-Nov-14 22:31N 62°14' W 006°48'0 0.0
2014-Nov-14 21:31N 62°14' W 006°48'0 0.0
2014-Nov-14 20:31N 62°14' W 006°48'0 0.0
2014-Nov-14 19:31N 62°14' W 006°48'0 0.0
2014-Nov-14 18:31N 62°14' W 006°48'0 0.0
2014-Nov-14 17:31N 62°14' W 006°48'0 0.0
2014-Nov-14 16:31N 62°14' W 006°48'2 2.5
2014-Nov-14 15:33N 62°14' W 006°43'10 1.2
2014-Nov-14 07:18N 62°23' W 006°49'6 8.4
2014-Nov-14 06:33N 62°17' W 006°46'3 2.9
2014-Nov-14 05:31N 62°14' W 006°48'0 0.0
2014-Nov-14 04:31N 62°14' W 006°48'0 0.0
2014-Nov-14 03:31N 62°14' W 006°48'0 0.0
2014-Nov-14 02:31N 62°14' W 006°48'0 0.0
2014-Nov-14 01:31N 62°14' W 006°48'0 0.0
2014-Nov-14 00:31N 62°14' W 006°48'0 0.0
2014-Nov-13 23:31N 62°14' W 006°48'0 0.0
2014-Nov-13 22:31N 62°14' W 006°48'0 0.0
2014-Nov-13 21:31N 62°14' W 006°48'0 0.0
2014-Nov-13 20:31N 62°14' W 006°48'  
Track history (hours):
 
Tides and Currents Weather Stations Pressure Air Temp Water Temp Dewpoint Dewpoint Depression Visibility Wind Speed Wind Dir Waves Ship Positions

Hav Tind

Last reported at 2014-Nov-23 19:33 UTC. Time now 2014-Nov-23 19:59 UTC.
Position N 62°14' W 006°48'.

Length 60 m; draft 4 m.

Type: Cargo ship. MMSI: 231565000.

Date/timePositionNaut miles runAvg speedWind from/ knotsBaromVisibWave heightAir tempDewpointWater temp
2014-Nov-23 19:33N 62°14' W 006°48'0 0.0
2014-Nov-23 18:33N 62°14' W 006°48'0 0.0
2014-Nov-23 17:30N 62°14' W 006°48'0 0.0
2014-Nov-23 16:33N 62°14' W 006°48'0 0.0
2014-Nov-23 15:33N 62°14' W 006°48'0 0.0
2014-Nov-23 14:33N 62°14' W 006°48'0 0.0
2014-Nov-23 13:33N 62°14' W 006°48'0 0.0
2014-Nov-23 12:33N 62°14' W 006°48'0 0.0
2014-Nov-23 11:33N 62°14' W 006°48'0 0.0
2014-Nov-23 10:33N 62°14' W 006°48'0 0.0
2014-Nov-23 09:33N 62°14' W 006°48'0 0.0
2014-Nov-23 08:33N 62°14' W 006°48'0 0.0
2014-Nov-23 07:33N 62°14' W 006°48'0 0.0
2014-Nov-23 06:33N 62°14' W 006°48'0 0.0
2014-Nov-23 05:33N 62°14' W 006°48'0 0.0
2014-Nov-23 04:33N 62°14' W 006°48'0 0.0
2014-Nov-23 03:33N 62°14' W 006°48'0 0.0
2014-Nov-23 02:33N 62°14' W 006°48'0 0.0
2014-Nov-23 01:33N 62°14' W 006°48'0 0.0
2014-Nov-23 00:33N 62°14' W 006°48'0 0.0
2014-Nov-22 23:30N 62°14' W 006°48'0 0.0
2014-Nov-22 22:33N 62°14' W 006°48'0 0.0
2014-Nov-22 21:27N 62°14' W 006°48'0 0.0
2014-Nov-22 20:33N 62°14' W 006°48'0 0.0
2014-Nov-22 19:33N 62°14' W 006°48'0 0.0
2014-Nov-22 18:33N 62°14' W 006°48'0 0.0
2014-Nov-22 17:30N 62°14' W 006°48'0 0.0
2014-Nov-22 16:33N 62°14' W 006°48'0 0.0
2014-Nov-22 15:33N 62°14' W 006°48'0 0.0
2014-Nov-22 14:33N 62°14' W 006°48'0 0.0
2014-Nov-22 13:33N 62°14' W 006°48'0 0.0
2014-Nov-22 12:30N 62°14' W 006°48'0 0.0
2014-Nov-22 11:33N 62°14' W 006°48'0 0.0
2014-Nov-22 10:33N 62°14' W 006°48'0 0.0
2014-Nov-22 09:33N 62°14' W 006°48'0 0.0
2014-Nov-22 08:33N 62°14' W 006°48'0 0.0
2014-Nov-22 07:30N 62°14' W 006°48'0 0.0
2014-Nov-22 06:33N 62°14' W 006°48'0 0.0
2014-Nov-22 05:33N 62°14' W 006°48'0 0.0
2014-Nov-22 04:33N 62°14' W 006°48'0 0.0
2014-Nov-22 03:33N 62°14' W 006°48'0 0.0
2014-Nov-22 02:33N 62°14' W 006°48'0 0.0
2014-Nov-22 01:33N 62°14' W 006°48'0 0.0
2014-Nov-22 00:30N 62°14' W 006°48'0 0.0
2014-Nov-21 23:33N 62°14' W 006°48'0 0.0
2014-Nov-21 22:33N 62°14' W 006°48'0 0.0
2014-Nov-21 21:33N 62°14' W 006°48'0 0.0
2014-Nov-21 20:33N 62°14' W 006°48'0 0.0
2014-Nov-21 19:33N 62°14' W 006°48'0 0.0
2014-Nov-21 18:33N 62°14' W 006°48'0 0.0
2014-Nov-21 17:33N 62°14' W 006°48'0 0.0
2014-Nov-21 16:33N 62°14' W 006°48'0 0.0
2014-Nov-21 15:30N 62°14' W 006°48'0 0.0
2014-Nov-21 14:33N 62°14' W 006°48'2 2.2
2014-Nov-21 13:33N 62°14' W 006°44'8 8.1
2014-Nov-21 12:33N 62°06' W 006°36'8 8.1
2014-Nov-21 11:33N 61°59' W 006°45'0 0.3
2014-Nov-21 10:32N 61°59' W 006°45'7 7.3
2014-Nov-21 09:33N 62°06' W 006°38'9 8.6
2014-Nov-21 08:33N 62°14' W 006°45'2 1.6
2014-Nov-21 07:32N 62°14' W 006°48'0 0.0
2014-Nov-21 06:32N 62°14' W 006°48'0 0.0
2014-Nov-21 05:32N 62°14' W 006°48'0 0.0
2014-Nov-21 04:32N 62°14' W 006°48'0 0.0
2014-Nov-21 03:32N 62°14' W 006°48'0 0.0
2014-Nov-21 02:32N 62°14' W 006°48'0 0.0
2014-Nov-21 01:32N 62°14' W 006°48'0 0.0
2014-Nov-21 00:29N 62°14' W 006°48'0 0.0
2014-Nov-20 23:32N 62°14' W 006°48'0 0.0
2014-Nov-20 22:32N 62°14' W 006°48'0 0.0
2014-Nov-20 21:32N 62°14' W 006°48'0 0.0
2014-Nov-20 20:32N 62°14' W 006°48'0 0.0
2014-Nov-20 19:32N 62°14' W 006°48'0 0.0
2014-Nov-20 18:32N 62°14' W 006°48'0 0.0
2014-Nov-20 17:29N 62°14' W 006°48'4 4.3
2014-Nov-20 16:31N 62°13' W 006°40'2 1.6
2014-Nov-20 15:05N 62°12' W 006°44'1 1.6
2014-Nov-20 14:34N 62°11' W 006°44'1 0.7
2014-Nov-20 13:31N 62°10' W 006°43'0 0.0
2014-Nov-20 12:31N 62°10' W 006°43'0 0.0
2014-Nov-20 11:28N 62°10' W 006°43'0 0.0
2014-Nov-20 10:31N 62°10' W 006°43'4 4.3
2014-Nov-20 09:33N 62°14' W 006°47'0 0.5
2014-Nov-20 08:33N 62°14' W 006°48'0 0.0
2014-Nov-20 07:33N 62°14' W 006°48'0 0.0
2014-Nov-20 06:33N 62°14' W 006°48'0 0.0
2014-Nov-20 05:33N 62°14' W 006°48'0 0.0
2014-Nov-20 04:33N 62°14' W 006°48'0 0.0
2014-Nov-20 03:33N 62°14' W 006°48'0 0.0
2014-Nov-20 02:30N 62°14' W 006°48'0 0.0
2014-Nov-20 01:33N 62°14' W 006°48'0 0.0
2014-Nov-20 00:33N 62°14' W 006°48'0 0.0
2014-Nov-19 23:33N 62°14' W 006°48'0 0.0
2014-Nov-19 22:33N 62°14' W 006°48'0 0.0
2014-Nov-19 21:33N 62°14' W 006°48'0 0.0
2014-Nov-19 20:33N 62°14' W 006°48'0 0.0
2014-Nov-19 19:33N 62°14' W 006°48'0 0.0
2014-Nov-19 18:33N 62°14' W 006°48'7 7.0
2014-Nov-19 17:33N 62°11' W 006°35'4 0.5
2014-Nov-19 09:28N 62°11' W 006°27'8 8.8
2014-Nov-19 08:33N 62°13' W 006°43'3 2.6
2014-Nov-19 07:33N 62°14' W 006°48'0 0.0
2014-Nov-19 06:30N 62°14' W 006°48'0 0.0
2014-Nov-19 05:33N 62°14' W 006°48'0 0.0
2014-Nov-19 04:33N 62°14' W 006°48'0 0.0
2014-Nov-19 03:33N 62°14' W 006°48'0 0.0
2014-Nov-19 02:33N 62°14' W 006°48'0 0.0
2014-Nov-19 01:33N 62°14' W 006°48'0 0.0
2014-Nov-19 00:33N 62°14' W 006°48'0 0.0
2014-Nov-18 23:30N 62°14' W 006°48'0 0.0
2014-Nov-18 22:33N 62°14' W 006°48'0 0.0
2014-Nov-18 21:33N 62°14' W 006°48'0 0.0
2014-Nov-18 20:33N 62°14' W 006°48'0 0.0
2014-Nov-18 19:33N 62°14' W 006°48'0 0.0
2014-Nov-18 18:33N 62°14' W 006°48'0 0.0
2014-Nov-18 17:33N 62°14' W 006°48'0 0.0
2014-Nov-18 16:33N 62°14' W 006°48'0 0.0
2014-Nov-18 15:33N 62°14' W 006°48'0 0.0
2014-Nov-18 14:33N 62°14' W 006°48'0 0.0
2014-Nov-18 13:33N 62°14' W 006°48'0 0.3
2014-Nov-18 12:33N 62°14' W 006°48'3 1.0
2014-Nov-18 09:09N 62°17' W 006°49'3 5.3
2014-Nov-18 08:33N 62°14' W 006°48'0 0.1
2014-Nov-18 07:31N 62°14' W 006°48'0 0.0
2014-Nov-18 06:31N 62°14' W 006°48'0 0.0
2014-Nov-18 05:25N 62°14' W 006°48'0 0.0
2014-Nov-18 04:31N 62°14' W 006°48'0 0.0
2014-Nov-18 03:31N 62°14' W 006°48'0 0.0
2014-Nov-18 02:31N 62°14' W 006°48'0 0.0
2014-Nov-18 01:34N 62°14' W 006°48'0 0.0
2014-Nov-18 00:31N 62°14' W 006°48'0 0.0
2014-Nov-17 23:31N 62°14' W 006°48'0 0.0
2014-Nov-17 22:25N 62°14' W 006°48'0 0.0
2014-Nov-17 21:28N 62°14' W 006°48'0 0.0
2014-Nov-17 20:25N 62°14' W 006°48'0 0.0
2014-Nov-17 19:31N 62°14' W 006°48'0 0.0
2014-Nov-17 18:31N 62°14' W 006°48'0 0.0
2014-Nov-17 17:34N 62°14' W 006°48'0 0.0
2014-Nov-17 16:31N 62°14' W 006°48'0 0.0
2014-Nov-17 15:31N 62°14' W 006°48'0 0.0
2014-Nov-17 14:31N 62°14' W 006°48'0 0.0
2014-Nov-17 13:31N 62°14' W 006°48'0 0.0
2014-Nov-17 12:31N 62°14' W 006°48'0 0.0
2014-Nov-17 11:31N 62°14' W 006°48'0 0.0
2014-Nov-17 10:31N 62°14' W 006°48'0 0.0
2014-Nov-17 09:34N 62°14' W 006°48'0 0.0
2014-Nov-17 08:31N 62°14' W 006°48'0 0.0
2014-Nov-17 07:31N 62°14' W 006°48'0 0.0
2014-Nov-17 06:28N 62°14' W 006°48'0 0.0
2014-Nov-17 05:31N 62°14' W 006°48'0 0.0
2014-Nov-17 04:31N 62°14' W 006°48'0 0.0
2014-Nov-17 03:31N 62°14' W 006°48'0 0.0
2014-Nov-17 02:34N 62°14' W 006°48'0 0.0
2014-Nov-17 01:31N 62°14' W 006°48'0 0.0
2014-Nov-17 00:31N 62°14' W 006°48'0 0.0
2014-Nov-16 23:31N 62°14' W 006°48'0 0.0
2014-Nov-16 22:31N 62°14' W 006°48'0 0.0
2014-Nov-16 21:28N 62°14' W 006°48'0 0.0
2014-Nov-16 20:31N 62°14' W 006°48'0 0.0
2014-Nov-16 19:34N 62°14' W 006°48'0 0.0
2014-Nov-16 18:34N 62°14' W 006°48'0 0.0
2014-Nov-16 17:31N 62°14' W 006°48'0 0.0
2014-Nov-16 16:31N 62°14' W 006°48'0 0.0
2014-Nov-16 15:31N 62°14' W 006°48'0 0.0
2014-Nov-16 14:31N 62°14' W 006°48'0 0.0
2014-Nov-16 13:31N 62°14' W 006°48'0 0.0
2014-Nov-16 12:31N 62°14' W 006°48'0 0.0
2014-Nov-16 11:34N 62°14' W 006°48'0 0.0
2014-Nov-16 10:31N 62°14' W 006°48'0 0.0
2014-Nov-16 09:31N 62°14' W 006°48'0 0.0
2014-Nov-16 08:31N 62°14' W 006°48'0 0.0
2014-Nov-16 07:28N 62°14' W 006°48'0 0.0
2014-Nov-16 06:31N 62°14' W 006°48'0 0.0
2014-Nov-16 05:31N 62°14' W 006°48'0 0.0
2014-Nov-16 04:31N 62°14' W 006°48'0 0.0
2014-Nov-16 03:31N 62°14' W 006°48'0 0.0
2014-Nov-16 02:31N 62°14' W 006°48'0 0.0
2014-Nov-16 01:31N 62°14' W 006°48'0 0.0
2014-Nov-16 00:31N 62°14' W 006°48'0 0.0
2014-Nov-15 23:31N 62°14' W 006°48'0 0.0
2014-Nov-15 22:31N 62°14' W 006°48'0 0.0
2014-Nov-15 21:31N 62°14' W 006°48'0 0.0
2014-Nov-15 20:31N 62°14' W 006°48'0 0.0
2014-Nov-15 19:34N 62°14' W 006°48'0 0.0
2014-Nov-15 18:31N 62°14' W 006°48'0 0.0
2014-Nov-15 17:31N 62°14' W 006°48'0 0.0
2014-Nov-15 16:31N 62°14' W 006°48'0 0.0
2014-Nov-15 15:31N 62°14' W 006°48'0 0.0
2014-Nov-15 14:31N 62°14' W 006°48'0 0.0
2014-Nov-15 13:31N 62°14' W 006°48'0 0.0
2014-Nov-15 12:34N 62°14' W 006°48'0 0.0
2014-Nov-15 11:34N 62°14' W 006°48'0 0.0
2014-Nov-15 10:31N 62°14' W 006°48'0 0.0
2014-Nov-15 09:31N 62°14' W 006°48'0 0.0
2014-Nov-15 08:31N 62°14' W 006°48'0 0.0
2014-Nov-15 07:34N 62°14' W 006°48'0 0.0
2014-Nov-15 06:31N 62°14' W 006°48'0 0.0
2014-Nov-15 05:30N 62°14' W 006°48'0 0.0
2014-Nov-15 04:31N 62°14' W 006°48'0 0.0
2014-Nov-15 03:31N 62°14' W 006°48'0 0.0
2014-Nov-15 02:31N 62°14' W 006°48'0 0.0
2014-Nov-15 01:31N 62°14' W 006°48'0 0.0
2014-Nov-15 00:28N 62°14' W 006°48'0 0.0
2014-Nov-14 23:31N 62°14' W 006°48'0 0.0
2014-Nov-14 22:31N 62°14' W 006°48'0 0.0
2014-Nov-14 21:31N 62°14' W 006°48'0 0.0
2014-Nov-14 20:31N 62°14' W 006°48'0 0.0
2014-Nov-14 19:31N 62°14' W 006°48'0 0.0
2014-Nov-14 18:31N 62°14' W 006°48'0 0.0
2014-Nov-14 17:31N 62°14' W 006°48'0 0.0
2014-Nov-14 16:31N 62°14' W 006°48'2 2.5
2014-Nov-14 15:33N 62°14' W 006°43'10 1.2
2014-Nov-14 07:18N 62°23' W 006°49'6 8.4
2014-Nov-14 06:33N 62°17' W 006°46'3 2.9
2014-Nov-14 05:31N 62°14' W 006°48'0 0.0
2014-Nov-14 04:31N 62°14' W 006°48'0 0.0
2014-Nov-14 03:31N 62°14' W 006°48'0 0.0
2014-Nov-14 02:31N 62°14' W 006°48'0 0.0
2014-Nov-14 01:31N 62°14' W 006°48'0 0.0
2014-Nov-14 00:31N 62°14' W 006°48'0 0.0
2014-Nov-13 23:31N 62°14' W 006°48'0 0.0
2014-Nov-13 22:31N 62°14' W 006°48'0 0.0
2014-Nov-13 21:31N 62°14' W 006°48'0 0.0
2014-Nov-13 20:31N 62°14' W 006°48'  

Dump ship's entire track history